createdAt,value
2023-01-13T00:07:32.142Z,8.57
2023-01-13T00:11:40.577Z,8.42
2023-01-13T00:15:55.659Z,8.35
2023-01-13T00:20:12.365Z,8.42
2023-01-13T00:24:43.028Z,8.35
2023-01-13T00:28:49.347Z,8.69
2023-01-13T00:33:08.014Z,8.92
2023-01-13T00:41:40.398Z,9.08
2023-01-13T00:45:58.896Z,8.98
2023-01-13T00:50:17.971Z,9.39
2023-01-13T00:59:02.489Z,9.43
2023-01-13T01:03:32.384Z,9.02
2023-01-13T01:08:01.761Z,8.70
2023-01-13T01:12:18.867Z,8.42
2023-01-13T01:20:53.263Z,10.44
2023-01-13T01:25:11.231Z,11.09
2023-01-13T01:29:41.784Z,10.82
2023-01-13T01:34:10.355Z,10.41
2023-01-13T01:42:54.381Z,10.22
2023-01-13T01:47:24.676Z,9.74
2023-01-13T01:51:41.609Z,10.78
2023-01-13T01:56:11.934Z,10.49
2023-01-13T02:00:30.067Z,9.71
2023-01-13T02:04:59.017Z,10.07
2023-01-13T02:09:16.113Z,10.20
2023-01-13T02:18:02.501Z,10.06
2023-01-13T02:22:55.142Z,10.14
2023-01-13T02:31:39.530Z,9.59
2023-01-13T02:36:20.948Z,9.79
2023-01-13T02:40:32.446Z,9.95
2023-01-13T02:44:59.829Z,9.95
2023-01-13T02:49:16.213Z,9.84
2023-01-13T02:53:34.730Z,9.79
2023-01-13T03:01:59.141Z,9.94
2023-01-13T03:06:07.217Z,10.09
2023-01-13T03:10:40.468Z,9.79
2023-01-13T03:15:05.027Z,9.40
2023-01-13T03:19:41.663Z,9.20
2023-01-13T03:24:03.900Z,8.92
2023-01-13T03:28:24.554Z,8.37
2023-01-13T03:32:32.856Z,8.05
2023-01-13T03:36:49.367Z,7.89
2023-01-13T03:41:26.788Z,8.06
2023-01-13T03:45:45.373Z,7.92
2023-01-13T03:50:04.581Z,7.82
2023-01-13T03:54:14.988Z,7.74
2023-01-13T04:03:07.065Z,7.67
2023-01-13T04:11:40.420Z,7.57
2023-01-13T04:15:56.990Z,7.50
2023-01-13T04:20:02.188Z,7.43
2023-01-13T04:24:07.551Z,7.38
2023-01-13T04:28:13.007Z,7.31
2023-01-13T04:32:18.415Z,7.33
2023-01-13T04:36:23.780Z,7.34
2023-01-13T04:40:31.159Z,7.34
2023-01-13T04:44:36.545Z,7.35
2023-01-13T04:48:41.911Z,7.35
2023-01-13T04:52:47.298Z,7.32
2023-01-13T04:56:54.735Z,7.27
2023-01-13T05:01:00.160Z,7.20
2023-01-13T05:09:18.864Z,7.20
2023-01-13T05:13:31.214Z,7.12
2023-01-13T05:17:38.269Z,7.00
2023-01-13T05:21:50.603Z,8.18
2023-01-13T05:25:55.940Z,9.35
2023-01-13T05:34:19.377Z,9.94
2023-01-13T05:38:24.722Z,10.11
2023-01-13T05:42:36.839Z,10.14
2023-01-13T05:55:18.859Z,8.99
2023-01-13T05:59:37.708Z,8.59
2023-01-13T06:12:18.568Z,7.72
2023-01-13T06:16:45.894Z,7.48
2023-01-13T06:25:06.167Z,8.42
2023-01-13T06:29:12.461Z,8.75
2023-01-13T06:33:16.962Z,8.92
2023-01-13T06:37:33.194Z,8.91
2023-01-13T06:41:44.476Z,8.83
2023-01-13T06:45:45.389Z,8.70
2023-01-13T06:49:35.347Z,8.64
2023-01-13T06:53:27.379Z,8.70
2023-01-13T06:57:29.239Z,8.79
2023-01-13T07:07:16.502Z,8.04
2023-01-13T07:11:23.662Z,7.83
2023-01-13T07:15:31.025Z,7.71
2023-01-13T07:20:01.509Z,7.54
2023-01-13T07:24:07.801Z,7.78
2023-01-13T07:32:39.471Z,7.79
2023-01-13T07:36:54.846Z,7.85
2023-01-13T07:41:11.932Z,7.88
2023-01-13T07:45:28.502Z,7.98
2023-01-13T07:49:49.085Z,7.97
2023-01-13T07:58:19.776Z,8.56
2023-01-13T08:02:37.691Z,8.85
2023-01-13T08:06:53.082Z,9.44
2023-01-13T08:11:10.331Z,9.81
2023-01-13T08:19:58.329Z,10.29
2023-01-13T08:32:53.596Z,9.78
2023-01-13T08:37:20.286Z,10.20
2023-01-13T08:41:59.917Z,10.16
2023-01-13T08:46:18.314Z,9.86
2023-01-13T08:50:46.759Z,10.19
2023-01-13T08:55:14.304Z,10.37
2023-01-13T09:03:56.077Z,10.90
2023-01-13T09:08:10.166Z,11.34
2023-01-13T09:13:53.881Z,11.07
2023-01-13T09:18:25.696Z,10.21
2023-01-13T09:27:14.961Z,10.80
2023-01-13T09:31:46.426Z,10.05
2023-01-13T09:40:32.749Z,10.06
2023-01-13T09:45:07.549Z,10.40
2023-01-13T09:49:59.030Z,10.79
2023-01-13T09:53:28.566Z,10.23
2023-01-13T09:57:08.039Z,10.40
2023-01-13T10:10:36.095Z,10.68
2023-01-13T10:19:24.051Z,10.60
2023-01-13T10:23:29.064Z,10.91
2023-01-13T10:27:38.112Z,11.00
2023-01-13T10:31:46.748Z,11.03
2023-01-13T10:36:05.072Z,10.99
2023-01-13T10:39:49.846Z,10.46
2023-01-13T10:52:17.072Z,10.99
2023-01-13T10:56:03.927Z,11.21
2023-01-13T11:00:10.773Z,10.38
2023-01-13T11:04:18.875Z,9.95
2023-01-13T11:08:29.864Z,10.56
2023-01-13T11:20:50.680Z,10.10
2023-01-13T11:28:29.875Z,9.88
2023-01-13T11:32:56.378Z,9.69
2023-01-13T11:37:08.612Z,9.70
2023-01-13T11:41:20.631Z,10.19
2023-01-13T11:45:19.679Z,10.52
2023-01-13T11:49:06.607Z,10.71
2023-01-13T11:53:31.303Z,10.71
2023-01-13T12:05:45.567Z,10.70
2023-01-13T12:13:34.527Z,10.92
2023-01-13T12:17:36.550Z,11.25
2023-01-13T12:22:00.461Z,10.48
2023-01-13T12:25:47.540Z,9.81
2023-01-13T12:33:29.565Z,10.63
2023-01-13T12:45:53.487Z,11.03
2023-01-13T12:49:40.598Z,10.83
2023-01-13T12:54:02.511Z,9.88
2023-01-13T12:58:02.316Z,10.02
2023-01-13T13:09:41.504Z,11.03
2023-01-13T13:13:41.494Z,11.11
2023-01-13T13:17:52.490Z,11.14
2023-01-13T13:29:42.054Z,10.48
2023-01-13T13:33:25.215Z,10.72
2023-01-13T13:37:21.475Z,10.84
2023-01-13T13:41:27.535Z,10.93
2023-01-13T13:45:21.299Z,11.13
2023-01-13T13:49:30.399Z,10.71
2023-01-13T13:53:47.227Z,9.78
2023-01-13T14:05:42.479Z,10.78
2023-01-13T14:09:37.390Z,10.91
2023-01-13T14:16:59.451Z,10.82
2023-01-13T14:20:57.356Z,10.71
2023-01-13T14:24:57.517Z,10.65
2023-01-13T14:28:55.358Z,10.59
2023-01-13T14:33:06.342Z,10.55
2023-01-13T14:37:04.347Z,10.49
2023-01-13T14:41:12.314Z,10.50
2023-01-13T14:45:09.134Z,10.39
2023-01-13T14:49:18.095Z,10.50
2023-01-13T14:56:54.296Z,10.57
2023-01-13T15:00:41.274Z,10.27
2023-01-13T15:04:40.272Z,10.04
2023-01-13T15:08:45.342Z,9.95
2023-01-13T15:12:41.248Z,9.98
2023-01-13T15:16:32.834Z,9.93
2023-01-13T15:20:22.246Z,9.82
2023-01-13T15:24:09.298Z,9.81
2023-01-13T15:27:56.239Z,9.77
2023-01-13T15:31:56.106Z,9.58
2023-01-13T15:36:30.232Z,9.26
2023-01-13T15:39:45.265Z,9.09
2023-01-13T15:43:50.201Z,9.02
2023-01-13T15:47:49.272Z,8.81
2023-01-13T15:55:30.233Z,8.75
2023-01-13T15:59:52.223Z,8.71
2023-01-13T16:03:15.353Z,8.51
2023-01-13T16:06:24.563Z,8.42
2023-01-13T16:10:19.321Z,8.26
2023-01-13T16:13:58.211Z,8.46
2023-01-13T16:18:21.126Z,8.57
2023-01-13T16:22:22.402Z,8.80
2023-01-13T16:26:52.275Z,8.98
2023-01-13T16:31:08.761Z,9.13
2023-01-13T16:35:12.365Z,9.15
2023-01-13T16:43:19.918Z,9.12
2023-01-13T16:47:34.243Z,9.01
2023-01-13T16:51:17.956Z,8.74
2023-01-13T16:56:02.753Z,8.87
2023-01-13T16:59:28.031Z,8.84
2023-01-13T17:03:30.949Z,8.83
2023-01-13T17:07:57.839Z,8.74
2023-01-13T17:11:44.817Z,8.55
2023-01-13T17:15:53.055Z,8.34
2023-01-13T17:20:12.824Z,8.04
2023-01-13T17:24:29.866Z,7.82
2023-01-13T17:31:37.671Z,7.51
2023-01-13T17:34:48.780Z,7.42
2023-01-13T17:37:53.846Z,7.37
2023-01-13T17:41:04.883Z,8.21
2023-01-13T17:44:31.511Z,8.89
2023-01-13T17:47:41.482Z,8.94
2023-01-13T17:50:50.364Z,8.83
2023-01-13T17:54:15.239Z,8.62
2023-01-13T17:57:38.347Z,8.39
2023-01-13T18:00:46.018Z,8.29
2023-01-13T18:04:21.953Z,8.48
2023-01-13T18:07:29.043Z,8.49
2023-01-13T18:10:34.077Z,8.31
2023-01-13T18:14:17.798Z,8.01
2023-01-13T18:17:21.595Z,7.71
2023-01-13T18:20:42.999Z,7.57
2023-01-13T18:24:04.666Z,7.42
2023-01-13T18:27:24.424Z,7.38
2023-01-13T18:30:27.391Z,7.84
2023-01-13T18:33:30.510Z,7.73
2023-01-13T18:36:33.787Z,7.59
2023-01-13T18:39:37.604Z,7.54
2023-01-13T18:42:56.425Z,7.43
2023-01-13T18:45:59.709Z,7.19
2023-01-13T18:49:02.961Z,7.01
2023-01-13T18:52:06.297Z,6.86
2023-01-13T18:55:10.601Z,6.77
2023-01-13T18:58:13.709Z,6.75
2023-01-13T19:01:16.968Z,6.73
2023-01-13T19:04:20.201Z,6.67
2023-01-13T19:07:27.108Z,6.60
2023-01-13T19:10:32.712Z,6.56
2023-01-13T19:13:36.594Z,6.54
2023-01-13T19:16:39.772Z,6.53
2023-01-13T19:19:49.018Z,6.53
2023-01-13T19:22:54.546Z,6.52
2023-01-13T19:26:02.279Z,6.50
2023-01-13T19:29:05.314Z,6.48
2023-01-13T19:32:08.478Z,6.45
2023-01-13T19:35:13.224Z,6.43
2023-01-13T19:38:16.231Z,6.42
2023-01-13T19:41:38.237Z,6.40
2023-01-13T19:44:59.792Z,6.37
2023-01-13T19:48:05.285Z,6.76
2023-01-13T19:51:08.512Z,6.81
2023-01-13T19:54:11.529Z,6.71
2023-01-13T19:57:15.319Z,6.58
2023-01-13T20:00:21.155Z,6.55
2023-01-13T20:03:27.021Z,6.66
2023-01-13T20:06:31.946Z,6.69
2023-01-13T20:09:35.900Z,6.71
2023-01-13T20:12:39.771Z,7.48
2023-01-13T20:15:44.139Z,8.76
2023-01-13T20:18:51.649Z,10.13
2023-01-13T20:21:54.588Z,11.01
2023-01-13T20:24:57.687Z,11.13
2023-01-13T20:28:02.409Z,11.07
2023-01-13T20:31:07.986Z,11.14
2023-01-13T20:34:11.567Z,11.08
2023-01-13T20:37:14.687Z,11.09
2023-01-13T20:40:18.569Z,11.10
2023-01-13T20:43:21.558Z,10.90
2023-01-13T20:46:24.674Z,10.56
2023-01-13T20:49:28.172Z,10.44
2023-01-13T20:52:58.469Z,10.28
2023-01-13T20:57:14.445Z,10.06
2023-01-13T21:00:51.900Z,10.03
2023-01-13T21:04:48.063Z,9.94
2023-01-13T21:08:59.557Z,9.80
2023-01-13T21:12:47.571Z,9.62
2023-01-13T21:16:25.812Z,9.56
2023-01-13T21:19:42.838Z,9.59
2023-01-13T21:22:48.242Z,9.52
2023-01-13T21:26:12.208Z,9.37
2023-01-13T21:29:23.565Z,9.29
2023-01-13T21:33:35.726Z,9.35
2023-01-13T21:37:54.933Z,9.19
2023-01-13T21:41:28.888Z,9.16
2023-01-13T21:45:33.388Z,9.16
2023-01-13T21:49:01.517Z,9.27
2023-01-13T21:52:09.938Z,9.35
2023-01-13T21:55:30.316Z,9.39
2023-01-13T21:59:00.880Z,9.40
2023-01-13T22:02:36.936Z,9.35
2023-01-13T22:05:56.773Z,9.35
2023-01-13T22:09:28.444Z,9.34
2023-01-13T22:12:36.617Z,9.32
2023-01-13T22:15:56.999Z,9.37
2023-01-13T22:19:17.713Z,9.36
2023-01-13T22:22:49.632Z,9.36
2023-01-13T22:26:14.111Z,9.32
2023-01-13T22:29:19.854Z,9.28
2023-01-13T22:32:39.003Z,9.33
2023-01-13T22:35:58.287Z,9.37
2023-01-13T22:39:03.946Z,9.39
2023-01-13T22:42:09.223Z,9.40
2023-01-13T22:45:22.022Z,9.40
2023-01-13T22:48:58.211Z,9.40
2023-01-13T22:52:14.167Z,9.48
2023-01-13T22:55:54.143Z,9.36
2023-01-13T22:59:11.637Z,9.13
2023-01-13T23:02:15.008Z,8.91
2023-01-13T23:05:35.585Z,8.67
2023-01-13T23:08:50.168Z,8.86
2023-01-13T23:12:05.535Z,8.84
2023-01-13T23:15:47.857Z,8.86
2023-01-13T23:24:34.857Z,8.75
2023-01-13T23:27:46.605Z,8.80
2023-01-13T23:30:58.739Z,8.85
2023-01-13T23:34:26.149Z,8.84
2023-01-13T23:38:07.608Z,8.77
2023-01-13T23:41:36.471Z,8.62
2023-01-13T23:44:41.137Z,8.78
2023-01-13T23:47:50.555Z,8.94
2023-01-13T23:51:04.324Z,8.97
2023-01-13T23:54:10.193Z,8.98
